EYSA

Šiauliai International Airport

Šiauliai, Lithuania
METAR EYSA 162150Z 14014KT 3400 SN DRSN BKN007 OVC013 M03/M03 Q1022 R14L/59//91 YLO1 NOSIG
Observed Flight Rules
Dec-16 @ 21:50 UTC (14 minutes ago) Instrument Flight Rules
Wind Visibility Clouds Conditions
140° at 14 knots 3,396 meters
  • Broken at 700' AGL
  • Overcast at 1,300' AGL
  • Snow
  • Low drifting
  • Snow
Temperatures Readings
Current -3°C / 27°F
Dewpoint -3°C / 27°F
Humidity 100%
Altimeter 30.18" Hg
Pressure 1022 hPa
Elevation 135
METAR EYSA 162150Z 14014KT 3400 SN DRSN BKN007 OVC013 M03/M03 Q1022 R14L/59//91 YLO1 NOSIG
Observed Flight Rules
Dec-16 @ 21:50 UTC
(14 minutes ago)
IFR
Wind Visibility
140° at 14 knots 3,396 meters
Clouds
  • Broken at 700' AGL
  • Overcast at 1,300' AGL
Conditions
  • Snow
  • Low drifting
  • Snow
Temperature Dewpoint
-3°C / 27°F -3°C / 27°F
Humidity Altimeter Pressure
100% 30.18" Hg 1022 hPa